Seaspan Commander — CFN6637 — position and weather

sailwx.info

Track history (hours):
 
Tides and Currents Weather Stations Pressure Air Temp Water Temp Dewpoint Dewpoint Depression Visibility Wind Speed Wind Dir Waves Ship Positions

Seaspan Commander

Last reported at 2018-Jan-21 06:30 UTC. Time now 2018-Jan-21 06:59 UTC.
Position N 49°07' W 123°07'.

Length 23 m; draft 4.3 m.

Type: Tug. MMSI: 316005498.

Date/timePositionNaut miles runAvg speedWind from/ knotsBaromVisibWave heightAir tempDewpointWater temp
2018-Jan-21 06:30N 49°07' W 123°07'3 1.1
2018-Jan-21 04:07N 49°07' W 123°11'112.6
2018-Jan-21 04:00N 49°07' W 123°09'510.2
2018-Jan-21 03:30N 49°09' W 123°02'5 9.4
2018-Jan-21 03:00N 49°11' W 122°55'1 2.6
2018-Jan-21 02:30N 49°12' W 122°55'1 2.5
2018-Jan-21 02:00N 49°11' W 122°55'2 3.4
2018-Jan-21 01:30N 49°09' W 122°57'3 5.1
2018-Jan-21 01:00N 49°09' W 123°01'2 5.0
2018-Jan-21 00:30N 49°08' W 123°04'10 4.2
2018-Jan-20 22:14N 49°06' W 123°19'1 4.4
2018-Jan-20 21:55N 49°08' W 123°20'3 6.7
2018-Jan-20 21:30N 49°10' W 123°19'3 6.8
2018-Jan-20 21:00N 49°14' W 123°18'1 2.9
2018-Jan-20 20:29N 49°15' W 123°17'1 1.5
2018-Jan-20 19:58N 49°16' W 123°18'1 1.1
2018-Jan-20 19:29N 49°16' W 123°18'2 4.9
2018-Jan-20 19:00N 49°17' W 123°21'3 5.1
2018-Jan-20 18:30N 49°19' W 123°25'3 5.1
2018-Jan-20 18:00N 49°20' W 123°28'32 4.8
2018-Jan-20 11:19N 49°36' W 124°11'2 5.8
2018-Jan-20 10:56N 49°37' W 124°14'3 5.8
2018-Jan-20 10:29N 49°39' W 124°16'3 5.3
2018-Jan-20 09:52N 49°42' W 124°19'2 5.8
2018-Jan-20 09:30N 49°43' W 124°22'3 5.9
2018-Jan-20 09:00N 49°45' W 124°25'3 5.3
2018-Jan-20 08:28N 49°47' W 124°29'2 5.2
2018-Jan-20 08:00N 49°48' W 124°32'3 5.7
2018-Jan-20 07:29N 49°51' W 124°33'1 2.2
2018-Jan-20 07:00N 49°52' W 124°34'0 0.9
2018-Jan-20 06:30N 49°52' W 124°33'0 0.2
2018-Jan-20 06:00N 49°52' W 124°33'0 0.0
2018-Jan-20 05:30N 49°52' W 124°33'0 0.0
2018-Jan-20 05:00N 49°52' W 124°33'0 0.0
2018-Jan-20 04:30N 49°52' W 124°33'0 0.0
2018-Jan-20 04:01N 49°52' W 124°33'0 0.0
2018-Jan-20 03:30N 49°52' W 124°33'0 0.0
2018-Jan-20 03:00N 49°52' W 124°33'0 0.0
2018-Jan-20 02:31N 49°52' W 124°33'0 0.0
2018-Jan-20 02:00N 49°52' W 124°33'0 0.0
2018-Jan-20 01:31N 49°52' W 124°33'0 0.0
2018-Jan-20 01:00N 49°52' W 124°33'0 0.0
2018-Jan-20 00:30N 49°52' W 124°33'0 0.0
2018-Jan-20 00:00N 49°52' W 124°33'0 0.0
2018-Jan-19 23:30N 49°52' W 124°33'0 0.0
2018-Jan-19 23:00N 49°52' W 124°33'0 0.0
2018-Jan-19 22:31N 49°52' W 124°33'0 0.0
2018-Jan-19 22:00N 49°52' W 124°33'0 0.0
2018-Jan-19 21:30N 49°52' W 124°33'0 0.0
2018-Jan-19 21:00N 49°52' W 124°33'0 0.0
2018-Jan-19 20:30N 49°52' W 124°33'0 0.0
2018-Jan-19 20:00N 49°52' W 124°33'0 0.0
2018-Jan-19 19:29N 49°52' W 124°33'0 0.0
2018-Jan-19 19:00N 49°52' W 124°33'0 0.0
2018-Jan-19 18:30N 49°52' W 124°33'0 0.0
2018-Jan-19 18:00N 49°52' W 124°33'0 0.0
2018-Jan-19 17:30N 49°52' W 124°33'0 0.0
2018-Jan-19 17:00N 49°52' W 124°33'0 0.4
2018-Jan-19 16:31N 49°52' W 124°33'0 0.0
2018-Jan-19 16:01N 49°52' W 124°33'0 0.0
2018-Jan-19 15:31N 49°52' W 124°33'0 0.0
2018-Jan-19 14:59N 49°52' W 124°33'0 0.0
2018-Jan-19 14:29N 49°52' W 124°33'0 0.0
2018-Jan-19 14:00N 49°52' W 124°33'0 0.0
2018-Jan-19 13:29N 49°52' W 124°33'0 0.0
2018-Jan-19 12:59N 49°52' W 124°33'0 0.0
2018-Jan-19 12:30N 49°52' W 124°33'0 0.0
2018-Jan-19 11:59N 49°52' W 124°33'0 0.0
2018-Jan-19 11:27N 49°52' W 124°33'0 0.0
2018-Jan-19 10:59N 49°52' W 124°33'0 0.0
2018-Jan-19 10:29N 49°52' W 124°33'0 0.0
2018-Jan-19 09:58N 49°52' W 124°33'0 0.0
2018-Jan-19 09:27N 49°52' W 124°33'0 0.0
2018-Jan-19 09:00N 49°52' W 124°33'0 0.0
2018-Jan-19 08:29N 49°52' W 124°33'0 0.0
2018-Jan-19 08:00N 49°52' W 124°33'0 0.0
2018-Jan-19 07:30N 49°52' W 124°33'0 0.0
2018-Jan-19 07:00N 49°52' W 124°33'0 0.0
2018-Jan-19 06:30N 49°52' W 124°33'0 0.0
2018-Jan-19 06:00N 49°52' W 124°33'0 0.0
2018-Jan-19 05:30N 49°52' W 124°33'0 0.0
2018-Jan-19 05:00N 49°52' W 124°33'0 0.0
2018-Jan-19 04:30N 49°52' W 124°33'0 0.0
2018-Jan-19 03:59N 49°52' W 124°33'0 0.0
2018-Jan-19 03:30N 49°52' W 124°33'0 0.0
2018-Jan-19 03:00N 49°52' W 124°33'0 0.0
2018-Jan-19 02:30N 49°52' W 124°33'0 0.0
2018-Jan-19 02:00N 49°52' W 124°33'0 0.0
2018-Jan-19 01:30N 49°52' W 124°33'0 0.0
2018-Jan-19 01:00N 49°52' W 124°33'0 0.0
2018-Jan-19 00:30N 49°52' W 124°33'0 0.0
2018-Jan-18 23:59N 49°52' W 124°33'0 0.0
2018-Jan-18 23:30N 49°52' W 124°33'0 0.0
2018-Jan-18 23:00N 49°52' W 124°33'0 0.0
2018-Jan-18 22:30N 49°52' W 124°33'0 0.0
2018-Jan-18 22:00N 49°52' W 124°33'0 0.5
2018-Jan-18 21:30N 49°52' W 124°34'0 0.4
2018-Jan-18 21:00N 49°52' W 124°34'0 0.4
2018-Jan-18 20:30N 49°52' W 124°34'1 2.2
2018-Jan-18 20:00N 49°51' W 124°33'2 4.5
2018-Jan-18 19:30N 49°49' W 124°33'3 6.3
2018-Jan-18 19:00N 49°47' W 124°29'4 7.2
2018-Jan-18 18:30N 49°45' W 124°25'3 6.4
2018-Jan-18 18:00N 49°43' W 124°20'3 6.2
2018-Jan-18 17:28N 49°41' W 124°17'8 7.0
2018-Jan-18 16:18N 49°34' W 124°09'2 7.1
2018-Jan-18 16:00N 49°33' W 124°07'19 6.8
2018-Jan-18 13:08N 49°23' W 123°41'1 6.3
2018-Jan-18 12:59N 49°22' W 123°40'3 6.1
2018-Jan-18 12:28N 49°21' W 123°36'3 6.3
2018-Jan-18 11:59N 49°20' W 123°31'3 6.2
2018-Jan-18 11:30N 49°18' W 123°27'3 6.1
2018-Jan-18 11:00N 49°17' W 123°23'3 5.4
2018-Jan-18 10:30N 49°16' W 123°19'1 1.8
2018-Jan-18 10:00N 49°16' W 123°18'4 7.3
2018-Jan-18 09:30N 49°12' W 123°19'4 7.7
2018-Jan-18 09:00N 49°08' W 123°19'2 3.9
2018-Jan-18 08:30N 49°07' W 123°17'4 7.6
2018-Jan-18 08:00N 49°07' W 123°11'4 8.6
2018-Jan-18 07:30N 49°07' W 123°05'4 8.7
2018-Jan-18 07:00N 49°09' W 122°59'0 0.3
2018-Jan-18 05:39N 49°09' W 122°59'0 0.9
2018-Jan-18 05:31N 49°09' W 122°59'1 1.2
2018-Jan-18 04:55N 49°09' W 122°60'3 5.7
2018-Jan-18 04:18N 49°07' W 123°04'6 5.9
2018-Jan-18 03:15N 49°08' W 123°14'  
2018-Jan-12 14:56N 49°07' W 123°12'5 7.8
2018-Jan-12 14:19N 49°06' W 123°20'4 8.7
2018-Jan-12 13:54N 49°07' W 123°25'8 0.9
2018-Jan-12 04:56N 49°15' W 123°26'3 5.9
2018-Jan-12 04:27N 49°16' W 123°22'3 5.7
2018-Jan-12 04:00N 49°16' W 123°18'1 2.5
2018-Jan-12 03:30N 49°15' W 123°17'1 2.1
2018-Jan-12 02:59N 49°15' W 123°15'0 0.0
2018-Jan-12 02:30N 49°15' W 123°15'2 3.2
2018-Jan-12 02:00N 49°16' W 123°17'3 5.1
2018-Jan-12 01:30N 49°18' W 123°17'3 6.6
2018-Jan-12 00:59N 49°18' W 123°22'4 8.2
2018-Jan-12 00:28N 49°17' W 123°28'4 0.4
2018-Jan-11 15:48N 49°16' W 123°33'2 7.3
2018-Jan-11 15:29N 49°17' W 123°30'4 7.4
2018-Jan-11 15:00N 49°18' W 123°25'4 7.9
2018-Jan-11 14:30N 49°19' W 123°19'4 7.8
2018-Jan-11 13:58N 49°19' W 123°13'4 7.8
2018-Jan-11 13:30N 49°18' W 123°07'1 1.1
2018-Jan-11 13:00N 49°19' W 123°06'0 0.0
2018-Jan-11 12:30N 49°19' W 123°06'0 0.0
2018-Jan-11 12:00N 49°19' W 123°06'0 0.0
2018-Jan-11 11:30N 49°19' W 123°06'0 0.0
2018-Jan-11 11:00N 49°19' W 123°06'0 0.0
2018-Jan-11 10:30N 49°19' W 123°06'0 0.0
2018-Jan-11 10:00N 49°19' W 123°06'0 0.0
2018-Jan-11 09:30N 49°19' W 123°06'0 0.0
2018-Jan-11 09:00N 49°19' W 123°06'0 0.0
2018-Jan-11 08:30N 49°19' W 123°06'0 0.0
2018-Jan-11 08:00N 49°19' W 123°06'0 0.0
2018-Jan-11 07:30N 49°19' W 123°06'0 0.0
2018-Jan-11 07:00N 49°19' W 123°06'0 0.0
2018-Jan-11 06:30N 49°19' W 123°06'  
Track history (hours):
 
Tides and Currents Weather Stations Pressure Air Temp Water Temp Dewpoint Dewpoint Depression Visibility Wind Speed Wind Dir Waves Ship Positions

Seaspan Commander

Last reported at 2018-Jan-21 06:30 UTC. Time now 2018-Jan-21 06:59 UTC.
Position N 49°07' W 123°07'.

Length 23 m; draft 4.3 m.

Type: Tug. MMSI: 316005498.

Date/timePositionNaut miles runAvg speedWind from/ knotsBaromVisibWave heightAir tempDewpointWater temp
2018-Jan-21 06:30N 49°07' W 123°07'3 1.1
2018-Jan-21 04:07N 49°07' W 123°11'112.6
2018-Jan-21 04:00N 49°07' W 123°09'510.2
2018-Jan-21 03:30N 49°09' W 123°02'5 9.4
2018-Jan-21 03:00N 49°11' W 122°55'1 2.6
2018-Jan-21 02:30N 49°12' W 122°55'1 2.5
2018-Jan-21 02:00N 49°11' W 122°55'2 3.4
2018-Jan-21 01:30N 49°09' W 122°57'3 5.1
2018-Jan-21 01:00N 49°09' W 123°01'2 5.0
2018-Jan-21 00:30N 49°08' W 123°04'10 4.2
2018-Jan-20 22:14N 49°06' W 123°19'1 4.4
2018-Jan-20 21:55N 49°08' W 123°20'3 6.7
2018-Jan-20 21:30N 49°10' W 123°19'3 6.8
2018-Jan-20 21:00N 49°14' W 123°18'1 2.9
2018-Jan-20 20:29N 49°15' W 123°17'1 1.5
2018-Jan-20 19:58N 49°16' W 123°18'1 1.1
2018-Jan-20 19:29N 49°16' W 123°18'2 4.9
2018-Jan-20 19:00N 49°17' W 123°21'3 5.1
2018-Jan-20 18:30N 49°19' W 123°25'3 5.1
2018-Jan-20 18:00N 49°20' W 123°28'32 4.8
2018-Jan-20 11:19N 49°36' W 124°11'2 5.8
2018-Jan-20 10:56N 49°37' W 124°14'3 5.8
2018-Jan-20 10:29N 49°39' W 124°16'3 5.3
2018-Jan-20 09:52N 49°42' W 124°19'2 5.8
2018-Jan-20 09:30N 49°43' W 124°22'3 5.9
2018-Jan-20 09:00N 49°45' W 124°25'3 5.3
2018-Jan-20 08:28N 49°47' W 124°29'2 5.2
2018-Jan-20 08:00N 49°48' W 124°32'3 5.7
2018-Jan-20 07:29N 49°51' W 124°33'1 2.2
2018-Jan-20 07:00N 49°52' W 124°34'0 0.9
2018-Jan-20 06:30N 49°52' W 124°33'0 0.2
2018-Jan-20 06:00N 49°52' W 124°33'0 0.0
2018-Jan-20 05:30N 49°52' W 124°33'0 0.0
2018-Jan-20 05:00N 49°52' W 124°33'0 0.0
2018-Jan-20 04:30N 49°52' W 124°33'0 0.0
2018-Jan-20 04:01N 49°52' W 124°33'0 0.0
2018-Jan-20 03:30N 49°52' W 124°33'0 0.0
2018-Jan-20 03:00N 49°52' W 124°33'0 0.0
2018-Jan-20 02:31N 49°52' W 124°33'0 0.0
2018-Jan-20 02:00N 49°52' W 124°33'0 0.0
2018-Jan-20 01:31N 49°52' W 124°33'0 0.0
2018-Jan-20 01:00N 49°52' W 124°33'0 0.0
2018-Jan-20 00:30N 49°52' W 124°33'0 0.0
2018-Jan-20 00:00N 49°52' W 124°33'0 0.0
2018-Jan-19 23:30N 49°52' W 124°33'0 0.0
2018-Jan-19 23:00N 49°52' W 124°33'0 0.0
2018-Jan-19 22:31N 49°52' W 124°33'0 0.0
2018-Jan-19 22:00N 49°52' W 124°33'0 0.0
2018-Jan-19 21:30N 49°52' W 124°33'0 0.0
2018-Jan-19 21:00N 49°52' W 124°33'0 0.0
2018-Jan-19 20:30N 49°52' W 124°33'0 0.0
2018-Jan-19 20:00N 49°52' W 124°33'0 0.0
2018-Jan-19 19:29N 49°52' W 124°33'0 0.0
2018-Jan-19 19:00N 49°52' W 124°33'0 0.0
2018-Jan-19 18:30N 49°52' W 124°33'0 0.0
2018-Jan-19 18:00N 49°52' W 124°33'0 0.0
2018-Jan-19 17:30N 49°52' W 124°33'0 0.0
2018-Jan-19 17:00N 49°52' W 124°33'0 0.4
2018-Jan-19 16:31N 49°52' W 124°33'0 0.0
2018-Jan-19 16:01N 49°52' W 124°33'0 0.0
2018-Jan-19 15:31N 49°52' W 124°33'0 0.0
2018-Jan-19 14:59N 49°52' W 124°33'0 0.0
2018-Jan-19 14:29N 49°52' W 124°33'0 0.0
2018-Jan-19 14:00N 49°52' W 124°33'0 0.0
2018-Jan-19 13:29N 49°52' W 124°33'0 0.0
2018-Jan-19 12:59N 49°52' W 124°33'0 0.0
2018-Jan-19 12:30N 49°52' W 124°33'0 0.0
2018-Jan-19 11:59N 49°52' W 124°33'0 0.0
2018-Jan-19 11:27N 49°52' W 124°33'0 0.0
2018-Jan-19 10:59N 49°52' W 124°33'0 0.0
2018-Jan-19 10:29N 49°52' W 124°33'0 0.0
2018-Jan-19 09:58N 49°52' W 124°33'0 0.0
2018-Jan-19 09:27N 49°52' W 124°33'0 0.0
2018-Jan-19 09:00N 49°52' W 124°33'0 0.0
2018-Jan-19 08:29N 49°52' W 124°33'0 0.0
2018-Jan-19 08:00N 49°52' W 124°33'0 0.0
2018-Jan-19 07:30N 49°52' W 124°33'0 0.0
2018-Jan-19 07:00N 49°52' W 124°33'0 0.0
2018-Jan-19 06:30N 49°52' W 124°33'0 0.0
2018-Jan-19 06:00N 49°52' W 124°33'0 0.0
2018-Jan-19 05:30N 49°52' W 124°33'0 0.0
2018-Jan-19 05:00N 49°52' W 124°33'0 0.0
2018-Jan-19 04:30N 49°52' W 124°33'0 0.0
2018-Jan-19 03:59N 49°52' W 124°33'0 0.0
2018-Jan-19 03:30N 49°52' W 124°33'0 0.0
2018-Jan-19 03:00N 49°52' W 124°33'0 0.0
2018-Jan-19 02:30N 49°52' W 124°33'0 0.0
2018-Jan-19 02:00N 49°52' W 124°33'0 0.0
2018-Jan-19 01:30N 49°52' W 124°33'0 0.0
2018-Jan-19 01:00N 49°52' W 124°33'0 0.0
2018-Jan-19 00:30N 49°52' W 124°33'0 0.0
2018-Jan-18 23:59N 49°52' W 124°33'0 0.0
2018-Jan-18 23:30N 49°52' W 124°33'0 0.0
2018-Jan-18 23:00N 49°52' W 124°33'0 0.0
2018-Jan-18 22:30N 49°52' W 124°33'0 0.0
2018-Jan-18 22:00N 49°52' W 124°33'0 0.5
2018-Jan-18 21:30N 49°52' W 124°34'0 0.4
2018-Jan-18 21:00N 49°52' W 124°34'0 0.4
2018-Jan-18 20:30N 49°52' W 124°34'1 2.2
2018-Jan-18 20:00N 49°51' W 124°33'2 4.5
2018-Jan-18 19:30N 49°49' W 124°33'3 6.3
2018-Jan-18 19:00N 49°47' W 124°29'4 7.2
2018-Jan-18 18:30N 49°45' W 124°25'3 6.4
2018-Jan-18 18:00N 49°43' W 124°20'3 6.2
2018-Jan-18 17:28N 49°41' W 124°17'8 7.0
2018-Jan-18 16:18N 49°34' W 124°09'2 7.1
2018-Jan-18 16:00N 49°33' W 124°07'19 6.8
2018-Jan-18 13:08N 49°23' W 123°41'1 6.3
2018-Jan-18 12:59N 49°22' W 123°40'3 6.1
2018-Jan-18 12:28N 49°21' W 123°36'3 6.3
2018-Jan-18 11:59N 49°20' W 123°31'3 6.2
2018-Jan-18 11:30N 49°18' W 123°27'3 6.1
2018-Jan-18 11:00N 49°17' W 123°23'3 5.4
2018-Jan-18 10:30N 49°16' W 123°19'1 1.8
2018-Jan-18 10:00N 49°16' W 123°18'4 7.3
2018-Jan-18 09:30N 49°12' W 123°19'4 7.7
2018-Jan-18 09:00N 49°08' W 123°19'2 3.9
2018-Jan-18 08:30N 49°07' W 123°17'4 7.6
2018-Jan-18 08:00N 49°07' W 123°11'4 8.6
2018-Jan-18 07:30N 49°07' W 123°05'4 8.7
2018-Jan-18 07:00N 49°09' W 122°59'0 0.3
2018-Jan-18 05:39N 49°09' W 122°59'0 0.9
2018-Jan-18 05:31N 49°09' W 122°59'1 1.2
2018-Jan-18 04:55N 49°09' W 122°60'3 5.7
2018-Jan-18 04:18N 49°07' W 123°04'6 5.9
2018-Jan-18 03:15N 49°08' W 123°14'  
2018-Jan-12 14:56N 49°07' W 123°12'5 7.8
2018-Jan-12 14:19N 49°06' W 123°20'4 8.7
2018-Jan-12 13:54N 49°07' W 123°25'8 0.9
2018-Jan-12 04:56N 49°15' W 123°26'3 5.9
2018-Jan-12 04:27N 49°16' W 123°22'3 5.7
2018-Jan-12 04:00N 49°16' W 123°18'1 2.5
2018-Jan-12 03:30N 49°15' W 123°17'1 2.1
2018-Jan-12 02:59N 49°15' W 123°15'0 0.0
2018-Jan-12 02:30N 49°15' W 123°15'2 3.2
2018-Jan-12 02:00N 49°16' W 123°17'3 5.1
2018-Jan-12 01:30N 49°18' W 123°17'3 6.6
2018-Jan-12 00:59N 49°18' W 123°22'4 8.2
2018-Jan-12 00:28N 49°17' W 123°28'4 0.4
2018-Jan-11 15:48N 49°16' W 123°33'2 7.3
2018-Jan-11 15:29N 49°17' W 123°30'4 7.4
2018-Jan-11 15:00N 49°18' W 123°25'4 7.9
2018-Jan-11 14:30N 49°19' W 123°19'4 7.8
2018-Jan-11 13:58N 49°19' W 123°13'4 7.8
2018-Jan-11 13:30N 49°18' W 123°07'1 1.1
2018-Jan-11 13:00N 49°19' W 123°06'0 0.0
2018-Jan-11 12:30N 49°19' W 123°06'0 0.0
2018-Jan-11 12:00N 49°19' W 123°06'0 0.0
2018-Jan-11 11:30N 49°19' W 123°06'0 0.0
2018-Jan-11 11:00N 49°19' W 123°06'0 0.0
2018-Jan-11 10:30N 49°19' W 123°06'0 0.0
2018-Jan-11 10:00N 49°19' W 123°06'0 0.0
2018-Jan-11 09:30N 49°19' W 123°06'0 0.0
2018-Jan-11 09:00N 49°19' W 123°06'0 0.0
2018-Jan-11 08:30N 49°19' W 123°06'0 0.0
2018-Jan-11 08:00N 49°19' W 123°06'0 0.0
2018-Jan-11 07:30N 49°19' W 123°06'0 0.0
2018-Jan-11 07:00N 49°19' W 123°06'0 0.0
2018-Jan-11 06:30N 49°19' W 123°06'  

Dump ship's entire track history